Mechanic Falls, Maine
Current Conditions -  °F | °C
As of 12:15 AM on Monday 20 Oct 2014 (Local Time) from KLEW Reporting Station
Overcast Overcast  
Wind Chill: 39°   Ceiling: 5000
Heat Index: 43°   Visibility: 10mi
Dew Point: 27°   Wind: 6mph
Humidity: 53%   Direction: 300°WNW
Pressure: 29.87"   Gusts: NA
Location:  44.11°N, 70.39°W
Report Text: KLEW 200415Z AUTO 30005KT 10SM OVC050 06/M03 A2987 RMK AO1
Loading
Personal Weather Stations






























Interactive Weather Map
Tropical Storm Tracking
New forecast layout! Learn more

10-Day Weather Forecast

Advertisements
Track Severe Weather on mobile